Time;durP1;ratioP1;P1;durP2;ratioP2;P2;SDS_P1;SDS_P2;PMS_P1;PMS_P2;Temp;Humidity;BMP_temperature;BMP_pressure;BME280_temperature;BME280_humidity;BME280_pressure;Samples;Min_cycle;Max_cycle;Signal;HPM_P1;HPM_P2
2022/04/09 00:00:09;;;;;;;5.13;2.10;;;21.50;42.80;;;;;;5040320;28;89037;-66
2022/04/09 00:02:38;;;;;;;2.60;1.40;;;21.50;42.80;;;;;;5040859;28;90784;-67
2022/04/09 00:05:07;;;;;;;4.90;2.10;;;21.50;42.80;;;;;;5030127;27;88483;-66
2022/04/09 00:07:35;;;;;;;5.30;2.17;;;21.50;42.80;;;;;;5040619;28;89900;-66
2022/04/09 00:10:05;;;;;;;6.20;2.50;;;21.50;42.80;;;;;;5040464;28;92963;-66
2022/04/09 00:12:33;;;;;;;5.77;2.07;;;21.50;42.80;;;;;;5040404;27;90239;-66
2022/04/09 00:15:01;;;;;;;4.30;1.90;;;21.50;42.80;;;;;;5040057;28;88497;-67
2022/04/09 00:17:29;;;;;;;4.63;1.60;;;21.50;42.80;;;;;;5040513;28;90073;-66
2022/04/09 00:19:57;;;;;;;5.10;2.23;;;21.40;42.80;;;;;;5040444;28;90420;-66
2022/04/09 00:22:25;;;;;;;4.17;2.23;;;21.50;42.80;;;;;;5040801;27;88276;-67
2022/04/09 00:24:53;;;;;;;5.23;2.10;;;21.40;42.80;;;;;;5021770;27;88614;-66
2022/04/09 00:27:23;;;;;;;3.33;1.83;;;21.40;42.80;;;;;;5033955;28;90774;-67
2022/04/09 00:29:52;;;;;;;2.77;2.13;;;21.40;42.80;;;;;;5038561;27;89439;-66
2022/04/09 00:32:20;;;;;;;5.47;2.23;;;21.40;42.90;;;;;;5040439;28;90700;-66
2022/04/09 00:34:48;;;;;;;3.70;1.70;;;21.40;42.80;;;;;;5039448;28;88608;-66
2022/04/09 00:37:16;;;;;;;2.73;1.40;;;21.40;42.80;;;;;;5039582;28;90379;-66
2022/04/09 00:39:44;;;;;;;3.10;1.60;;;21.30;42.70;;;;;;5038951;27;89273;-67
2022/04/09 00:42:15;;;;;;;3.87;2.00;;;21.40;42.80;;;;;;5039990;28;88521;-66
2022/04/09 00:44:44;;;;;;;7.27;1.77;;;21.30;42.70;;;;;;5038937;27;88596;-67
2022/04/09 00:47:13;;;;;;;3.33;1.87;;;21.30;42.70;;;;;;5022694;28;90790;-66
2022/04/09 00:49:41;;;;;;;3.20;1.70;;;21.30;42.80;;;;;;5040057;28;88423;-66
2022/04/09 00:52:09;;;;;;;3.43;1.47;;;21.30;42.70;;;;;;5039795;28;89576;-66
2022/04/09 00:54:39;;;;;;;2.17;1.43;;;21.30;42.70;;;;;;5040198;27;88657;-67
2022/04/09 00:57:08;;;;;;;2.07;1.70;;;21.30;42.70;;;;;;5039997;28;90850;-66
2022/04/09 00:59:36;;;;;;;3.53;1.47;;;21.30;42.70;;;;;;5038587;28;90224;-66
2022/04/09 01:02:06;;;;;;;2.80;1.27;;;21.30;42.70;;;;;;5039667;27;88998;-66
2022/04/09 01:04:34;;;;;;;3.03;1.27;;;21.20;42.60;;;;;;5039714;28;88528;-66
2022/04/09 01:07:03;;;;;;;2.27;1.47;;;21.20;42.60;;;;;;5039363;27;88597;-66
2022/04/09 01:09:31;;;;;;;2.87;2.00;;;21.20;42.60;;;;;;5039175;28;92283;-66
2022/04/09 01:12:00;;;;;;;4.00;1.80;;;21.20;42.60;;;;;;5039482;28;88418;-66
2022/04/09 01:14:28;;;;;;;1.50;1.07;;;21.20;42.60;;;;;;5039929;28;88557;-66
2022/04/09 01:16:57;;;;;;;3.13;1.37;;;21.20;42.60;;;;;;5038877;27;90465;-66
2022/04/09 01:19:26;;;;;;;2.40;1.13;;;21.20;42.60;;;;;;5039365;28;91606;-66
2022/04/09 01:21:59;;;;;;;2.10;1.20;;;21.20;42.60;;;;;;5039209;28;88960;-66
2022/04/09 01:24:27;;;;;;;2.37;1.30;;;21.10;42.60;;;;;;5039291;28;88392;-67
2022/04/09 01:26:55;;;;;;;7.38;1.55;;;21.10;42.50;;;;;;5047288;27;90618;-65
2022/04/09 01:29:23;;;;;;;1.83;1.20;;;21.10;42.50;;;;;;5041637;27;90010;-67
2022/04/09 01:31:51;;;;;;;2.33;1.63;;;21.10;42.60;;;;;;5037795;28;89945;-67
2022/04/09 01:34:19;;;;;;;1.87;1.20;;;21.10;42.60;;;;;;5037877;27;88672;-68
2022/04/09 01:36:47;;;;;;;3.47;1.60;;;21.20;42.70;;;;;;5039157;28;90586;-67
2022/04/09 01:39:18;;;;;;;2.20;1.30;;;21.10;42.60;;;;;;5039203;28;90052;-67
2022/04/09 01:41:46;;;;;;;2.67;0.90;;;21.10;42.70;;;;;;5039271;27;89477;-66
2022/04/09 01:44:14;;;;;;;4.60;1.03;;;21.10;42.70;;;;;;5039063;27;88602;-67
2022/04/09 01:46:44;;;;;;;1.90;1.03;;;21.10;42.70;;;;;;5018554;28;90516;-67
2022/04/09 01:49:13;;;;;;;2.97;1.00;;;21.10;42.70;;;;;;5032698;28;90004;-67
2022/04/09 01:51:41;;;;;;;2.47;0.93;;;21.10;42.70;;;;;;5037710;28;89203;-67
2022/04/09 01:54:09;;;;;;;3.13;1.10;;;21.10;42.70;;;;;;5037003;27;88551;-68
2022/04/09 01:56:39;;;;;;;2.77;0.90;;;21.10;42.70;;;;;;5041648;27;90133;-68
2022/04/09 01:59:07;;;;;;;2.67;1.27;;;21.00;42.60;;;;;;5042049;28;89033;-67
2022/04/09 02:01:35;;;;;;;3.07;1.17;;;21.10;42.70;;;;;;5040807;28;88593;-67
2022/04/09 02:04:04;;;;;;;1.10;0.80;;;21.10;42.20;;;;;;5041963;27;88379;-68
2022/04/09 02:06:33;;;;;;;2.80;1.10;;;21.00;42.60;;;;;;5022633;28;93919;-72
2022/04/09 02:09:01;;;;;;;1.30;0.90;;;21.00;42.60;;;;;;5034186;28;91076;-72
2022/04/09 02:11:29;;;;;;;3.67;1.30;;;21.00;42.60;;;;;;5044382;27;89439;-72
2022/04/09 02:14:02;;;;;;;1.13;0.63;;;21.00;42.70;;;;;;5051421;27;88645;-72
2022/04/09 02:16:33;;;;;;;2.27;0.97;;;21.00;42.70;;;;;;5042023;28;90779;-72
2022/04/09 02:19:02;;;;;;;3.17;0.80;;;21.00;42.70;;;;;;5041737;27;89265;-72
2022/04/09 02:21:30;;;;;;;3.17;1.10;;;20.90;42.60;;;;;;5040948;28;89234;-72
2022/04/09 02:23:58;;;;;;;1.10;1.00;;;21.00;42.70;;;;;;5042233;28;88669;-72
2022/04/09 02:26:26;;;;;;;4.30;1.17;;;20.90;42.70;;;;;;5041563;28;90891;-71
2022/04/09 02:28:55;;;;;;;2.27;1.00;;;20.90;42.70;;;;;;5040932;27;89149;-71
2022/04/09 02:31:24;;;;;;;2.53;1.17;;;20.90;42.70;;;;;;5041296;28;89226;-71
2022/04/09 02:33:53;;;;;;;1.67;0.80;;;20.90;42.80;;;;;;5042061;27;88255;-72
2022/04/09 02:36:22;;;;;;;0.70;0.60;;;20.90;42.70;;;;;;5042590;27;90993;-72
2022/04/09 02:38:50;;;;;;;2.23;0.70;;;20.90;42.70;;;;;;5036031;27;90242;-72
2022/04/09 02:41:18;;;;;;;2.00;1.00;;;20.90;42.70;;;;;;5041302;28;88816;-72
2022/04/09 02:43:46;;;;;;;2.83;0.77;;;20.90;42.70;;;;;;5041412;27;88650;-72
2022/04/09 02:46:16;;;;;;;3.00;0.90;;;20.90;42.70;;;;;;5041934;27;90070;-72
2022/04/09 02:48:50;;;;;;;2.33;1.03;;;20.90;42.70;;;;;;5041497;27;89932;-69
2022/04/09 02:51:18;;;;;;;1.33;0.73;;;20.90;43.40;;;;;;5042499;28;88165;-72
2022/04/09 02:53:46;;;;;;;1.97;0.93;;;20.90;42.70;;;;;;5042428;27;88633;-72
2022/04/09 02:56:14;;;;;;;4.47;1.03;;;20.90;42.70;;;;;;5042459;28;89981;-71
2022/04/09 02:58:42;;;;;;;2.87;1.23;;;20.90;42.70;;;;;;5041989;28;91046;-72
2022/04/09 03:01:11;;;;;;;3.20;1.00;;;20.90;42.70;;;;;;5042637;27;89850;-72
2022/04/09 03:03:39;;;;;;;2.80;0.87;;;20.80;42.60;;;;;;5042324;27;88621;-72
2022/04/09 03:06:09;;;;;;;1.90;0.77;;;20.80;42.60;;;;;;5042566;28;93241;-72
2022/04/09 03:08:37;;;;;;;6.43;1.30;;;20.80;42.70;;;;;;5041109;28;89968;-72
2022/04/09 03:11:05;;;;;;;1.30;0.83;;;20.80;42.60;;;;;;5041617;27;88634;-72
2022/04/09 03:13:33;;;;;;;0.97;0.87;;;20.80;42.70;;;;;;5041685;28;88426;-72
2022/04/09 03:16:02;;;;;;;1.73;0.80;;;20.80;42.70;;;;;;5041317;27;89552;-72
2022/04/09 03:18:30;;;;;;;5.50;0.90;;;20.70;42.60;;;;;;5041259;27;90082;-72
2022/04/09 03:20:58;;;;;;;2.00;0.70;;;20.80;42.60;;;;;;5041151;28;88435;-72
2022/04/09 03:23:29;;;;;;;2.30;1.27;;;20.70;42.60;;;;;;5042112;27;88675;-72
2022/04/09 03:25:58;;;;;;;3.23;1.53;;;20.70;42.60;;;;;;5038394;28;90580;-72
2022/04/09 03:28:26;;;;;;;1.10;1.00;;;20.70;42.60;;;;;;5030804;28;88260;-72
2022/04/09 03:30:54;;;;;;;3.30;1.10;;;20.70;42.60;;;;;;5040575;28;88932;-72
2022/04/09 03:33:22;;;;;;;2.30;0.73;;;20.70;42.70;;;;;;5040834;28;88412;-71
2022/04/09 03:35:50;;;;;;;2.30;1.00;;;20.70;42.70;;;;;;5041235;28;90623;-71
2022/04/09 03:38:18;;;;;;;5.73;1.13;;;20.70;42.70;;;;;;5040814;28;90048;-72
2022/04/09 03:40:48;;;;;;;1.20;0.90;;;20.70;42.70;;;;;;5039577;27;89871;-72
2022/04/09 03:43:16;;;;;;;1.13;0.63;;;20.60;42.60;;;;;;5040656;27;88271;-72
2022/04/09 03:45:44;;;;;;;2.60;0.97;;;20.70;42.70;;;;;;5040766;28;90178;-72
2022/04/09 03:48:15;;;;;;;1.50;0.90;;;20.70;42.70;;;;;;5040529;28;92942;-72
2022/04/09 03:50:43;;;;;;;1.23;0.60;;;20.60;42.60;;;;;;5020299;28;89639;-72
2022/04/09 03:53:11;;;;;;;2.30;0.60;;;20.60;42.60;;;;;;5020808;28;88656;-72
2022/04/09 03:55:39;;;;;;;1.53;0.93;;;20.60;42.60;;;;;;5021185;28;91351;-72
2022/04/09 03:58:09;;;;;;;1.00;0.90;;;20.60;42.60;;;;;;5026348;28;89591;-72
2022/04/09 04:00:37;;;;;;;2.87;0.80;;;20.60;42.60;;;;;;5040722;28;88518;-72
2022/04/09 04:03:07;;;;;;;2.50;0.73;;;20.60;42.60;;;;;;5040467;28;88665;-72
2022/04/09 04:05:36;;;;;;;1.10;0.77;;;20.60;42.60;;;;;;5039810;28;89603;-71
2022/04/09 04:08:05;;;;;;;2.03;1.50;;;20.60;42.60;;;;;;5039259;28;92923;-72
2022/04/09 04:10:34;;;;;;;1.23;0.87;;;20.60;42.60;;;;;;5040118;27;88427;-72
2022/04/09 04:13:03;;;;;;;3.60;0.60;;;20.60;42.60;;;;;;5040456;28;88643;-72
2022/04/09 04:15:32;;;;;;;1.23;0.87;;;20.60;42.60;;;;;;5040340;27;90737;-71
2022/04/09 04:18:01;;;;;;;3.13;1.00;;;20.60;42.60;;;;;;5039696;27;89096;-73
2022/04/09 04:20:31;;;;;;;1.43;0.67;;;20.50;42.60;;;;;;5040125;28;88538;-73
2022/04/09 04:22:59;;;;;;;0.77;0.70;;;20.50;42.60;;;;;;5039980;28;88499;-72
2022/04/09 04:25:27;;;;;;;2.63;0.70;;;20.60;42.60;;;;;;5039554;28;90171;-72
2022/04/09 04:27:56;;;;;;;1.43;0.70;;;20.50;42.60;;;;;;5039317;27;90241;-72
2022/04/09 04:30:24;;;;;;;2.40;0.90;;;20.50;42.60;;;;;;5022253;28;89547;-72
2022/04/09 04:32:53;;;;;;;2.00;0.80;;;20.50;42.60;;;;;;5040521;28;88734;-72
2022/04/09 04:35:21;;;;;;;3.30;0.90;;;20.50;42.60;;;;;;5040051;28;90670;-71
2022/04/09 04:37:49;;;;;;;3.00;0.77;;;20.50;42.60;;;;;;5040113;28;89084;-70
2022/04/09 04:40:17;;;;;;;2.63;1.10;;;20.50;42.60;;;;;;5038679;28;91183;-72
2022/04/09 04:42:45;;;;;;;4.00;1.10;;;20.40;43.20;;;;;;5039626;28;88330;-70
2022/04/09 04:45:14;;;;;;;0.87;0.67;;;20.50;42.60;;;;;;5039218;27;90466;-72
2022/04/09 04:47:45;;;;;;;1.20;0.70;;;20.50;42.60;;;;;;5039088;27;90322;-71
2022/04/09 04:50:15;;;;;;;1.93;0.70;;;20.50;42.60;;;;;;5027241;28;89802;-72
2022/04/09 04:52:43;;;;;;;4.03;0.63;;;20.40;42.50;;;;;;5040081;27;88688;-70
2022/04/09 04:55:11;;;;;;;3.13;0.70;;;20.40;42.60;;;;;;5038926;27;90873;-71
2022/04/09 04:57:43;;;;;;;0.83;0.70;;;20.40;42.60;;;;;;5039737;28;92709;-72
2022/04/09 05:00:12;;;;;;;0.70;0.60;;;20.40;42.60;;;;;;5026964;27;88603;-71
2022/04/09 05:02:40;;;;;;;1.93;0.67;;;20.40;42.60;;;;;;5019552;28;88394;-72
2022/04/09 05:05:08;;;;;;;0.80;0.60;;;20.40;42.60;;;;;;5023613;28;91789;-72
2022/04/09 05:07:41;;;;;;;3.17;0.70;;;20.40;42.60;;;;;;5037322;28;91177;-71
2022/04/09 05:10:10;;;;;;;2.13;0.90;;;20.40;42.60;;;;;;5019217;28;91898;-71
2022/04/09 05:12:38;;;;;;;1.27;0.70;;;20.40;42.60;;;;;;5019227;28;89475;-72
2022/04/09 05:15:08;;;;;;;0.83;0.83;;;20.40;42.60;;;;;;5037683;28;90579;-72
2022/04/09 05:17:36;;;;;;;4.30;1.10;;;20.40;42.60;;;;;;5039499;28;93239;-72
2022/04/09 05:20:05;;;;;;;0.77;0.70;;;20.40;42.60;;;;;;5038990;27;88332;-72
2022/04/09 05:22:33;;;;;;;0.60;0.53;;;20.40;42.60;;;;;;5028524;28;88440;-72
2022/04/09 05:25:02;;;;;;;1.90;0.80;;;20.40;42.60;;;;;;5019545;28;89564;-70
2022/04/09 05:27:31;;;;;;;1.60;1.13;;;20.40;42.60;;;;;;5037183;28;92318;-71
2022/04/09 05:29:59;;;;;;;1.17;0.90;;;20.30;42.60;;;;;;5040203;27;90919;-66
2022/04/09 05:32:27;;;;;;;0.90;0.70;;;20.40;42.60;;;;;;5043024;27;88479;-66
2022/04/09 05:34:55;;;;;;;2.27;0.87;;;20.40;42.60;;;;;;5041885;27;89618;-71
2022/04/09 05:37:23;;;;;;;1.80;1.00;;;20.30;42.50;;;;;;5041432;28;89611;-70
2022/04/09 05:39:51;;;;;;;1.97;0.50;;;20.30;42.50;;;;;;5042569;28;89815;-70
2022/04/09 05:42:22;;;;;;;1.73;0.77;;;20.30;42.50;;;;;;5043410;28;88645;-71
2022/04/09 05:44:50;;;;;;;3.43;0.60;;;20.30;42.50;;;;;;5042724;28;93964;-71
2022/04/09 05:47:18;;;;;;;0.90;0.50;;;20.30;42.50;;;;;;5041593;28;93353;-70
2022/04/09 05:49:46;;;;;;;1.27;0.87;;;20.30;42.50;;;;;;5041995;27;88849;-72
2022/04/09 05:52:14;;;;;;;4.33;1.37;;;20.30;42.50;;;;;;5042810;28;88320;-72
2022/04/09 05:54:43;;;;;;;0.60;0.50;;;20.30;42.50;;;;;;5037413;27;90577;-72
2022/04/09 05:57:11;;;;;;;1.30;0.90;;;20.30;42.50;;;;;;5041596;28;91990;-68
2022/04/09 05:59:40;;;;;;;1.20;0.90;;;20.20;42.40;;;;;;5041699;28;89144;-62
2022/04/09 06:02:08;;;;;;;1.50;0.70;;;20.20;42.50;;;;;;5042823;27;88446;-65
2022/04/09 06:04:37;;;;;;;2.43;1.03;;;20.20;42.50;;;;;;5048708;27;89882;-64
2022/04/09 06:07:05;;;;;;;1.83;1.20;;;20.20;42.60;;;;;;5046399;27;91041;-66
2022/04/09 06:09:33;;;;;;;2.50;1.10;;;20.20;42.80;;;;;;5044389;27;88741;-66
2022/04/09 06:12:01;;;;;;;3.33;1.00;;;20.20;43.00;;;;;;5039135;27;88744;-66
2022/04/09 06:14:29;;;;;;;2.27;1.27;;;20.30;43.20;;;;;;5054975;27;89959;-66
2022/04/09 06:16:59;;;;;;;4.33;1.00;;;20.30;43.20;;;;;;5042632;28;89045;-64
2022/04/09 06:19:29;;;;;;;1.37;0.83;;;20.30;43.30;;;;;;5041519;27;88794;-67
2022/04/09 06:21:57;;;;;;;2.27;1.20;;;20.30;43.30;;;;;;5040618;27;88851;-66
2022/04/09 06:24:25;;;;;;;1.57;1.17;;;20.30;43.40;;;;;;5038440;27;90689;-67
2022/04/09 06:26:53;;;;;;;1.40;0.63;;;20.20;43.30;;;;;;5041164;27;90325;-69
2022/04/09 06:29:21;;;;;;;6.00;1.37;;;20.30;43.40;;;;;;5040247;28;89305;-71
2022/04/09 06:31:50;;;;;;;5.10;1.40;;;20.30;43.50;;;;;;5040850;27;88560;-69
2022/04/09 06:34:21;;;;;;;1.03;0.83;;;20.30;43.40;;;;;;5040026;27;89756;-69
2022/04/09 06:36:49;;;;;;;1.07;0.97;;;20.30;43.40;;;;;;5029863;27;90380;-68
2022/04/09 06:39:18;;;;;;;1.20;0.80;;;20.40;43.40;;;;;;5038962;27;88868;-69
2022/04/09 06:41:48;;;;;;;4.47;0.80;;;20.40;43.40;;;;;;5040367;27;88458;-69
2022/04/09 06:44:17;;;;;;;1.60;0.73;;;20.50;43.50;;;;;;5037237;28;89389;-69
2022/04/09 06:46:46;;;;;;;2.43;0.83;;;20.50;43.40;;;;;;5039649;27;89147;-69
2022/04/09 06:49:14;;;;;;;1.70;1.10;;;20.40;43.30;;;;;;5038709;27;90118;-71
2022/04/09 06:51:45;;;;;;;2.07;0.90;;;20.40;43.30;;;;;;5040276;28;88815;-71
2022/04/09 06:54:13;;;;;;;1.10;0.67;;;20.40;43.40;;;;;;5041575;27;90715;-69
2022/04/09 06:56:41;;;;;;;2.30;0.93;;;20.40;43.40;;;;;;5040689;27;89299;-65
2022/04/09 06:59:09;;;;;;;2.53;0.90;;;20.40;43.40;;;;;;5040349;27;88534;-66
2022/04/09 07:01:37;;;;;;;3.70;1.57;;;20.40;43.40;;;;;;5037780;27;88550;-66
2022/04/09 07:04:06;;;;;;;4.27;1.10;;;20.40;43.40;;;;;;5041310;27;90621;-67
2022/04/09 07:06:34;;;;;;;9.10;1.73;;;20.40;43.50;;;;;;5052125;27;89165;-66
2022/04/09 07:09:03;;;;;;;2.63;1.30;;;20.40;43.60;;;;;;5041143;27;89199;-64
2022/04/09 07:11:31;;;;;;;7.10;2.73;;;20.40;43.70;;;;;;5041203;27;89331;-66
2022/04/09 07:13:59;;;;;;;7.50;2.40;;;20.40;44.40;;;;;;5036582;27;90691;-65
2022/04/09 07:16:27;;;;;;;5.73;2.53;;;20.50;44.10;;;;;;5039145;27;90394;-65
2022/04/09 07:18:55;;;;;;;9.10;2.87;;;20.50;44.20;;;;;;5034499;27;90069;-65
2022/04/09 07:21:23;;;;;;;6.17;2.70;;;20.50;44.20;;;;;;5038365;27;88456;-64
2022/04/09 07:23:51;;;;;;;5.10;2.87;;;20.50;44.30;;;;;;5034817;27;90587;-64
2022/04/09 07:26:20;;;;;;;7.90;3.17;;;20.60;44.50;;;;;;5032788;27;90099;-65
2022/04/09 07:28:49;;;;;;;4.30;2.80;;;20.50;44.60;;;;;;5036310;27;88988;-64
2022/04/09 07:31:17;;;;;;;13.40;3.73;;;20.50;44.60;;;;;;5037316;28;88550;-64
2022/04/09 07:33:45;;;;;;;9.93;3.10;;;20.50;44.80;;;;;;5037209;27;90646;-65
2022/04/09 07:36:13;;;;;;;8.60;3.63;;;20.50;44.80;;;;;;5044068;27;90064;-64
2022/04/09 07:38:41;;;;;;;6.00;3.30;;;20.50;45.00;;;;;;5037595;27;88785;-65
2022/04/09 07:41:09;;;;;;;8.73;3.27;;;20.50;45.00;;;;;;5038000;27;88672;-64
2022/04/09 07:43:38;;;;;;;4.50;3.33;;;20.50;45.10;;;;;;5039862;27;90686;-65
2022/04/09 07:46:06;;;;;;;8.77;3.30;;;20.50;45.20;;;;;;5036421;27;90061;-64
2022/04/09 07:48:35;;;;;;;7.10;3.60;;;20.50;45.30;;;;;;5032688;27;88920;-65
2022/04/09 07:51:03;;;;;;;5.13;3.10;;;20.50;45.30;;;;;;5037635;27;88690;-64
2022/04/09 07:53:31;;;;;;;6.13;3.37;;;20.40;45.30;;;;;;5036062;27;89518;-65
2022/04/09 07:55:59;;;;;;;7.13;2.97;;;20.50;45.50;;;;;;5036658;28;88935;-65
2022/04/09 07:58:27;;;;;;;5.20;3.27;;;20.50;45.60;;;;;;5037505;27;88936;-64
2022/04/09 08:00:57;;;;;;;5.33;3.10;;;20.40;45.70;;;;;;5037210;27;88670;-64
2022/04/09 08:03:25;;;;;;;3.97;3.00;;;20.50;45.70;;;;;;5037227;27;88949;-65
2022/04/09 08:05:53;;;;;;;3.00;2.60;;;20.50;45.80;;;;;;5036639;28;89338;-64
2022/04/09 08:08:21;;;;;;;8.00;3.13;;;20.60;46.60;;;;;;5036388;28;92728;-64
2022/04/09 08:10:49;;;;;;;7.93;3.27;;;20.70;46.60;;;;;;5039852;27;88628;-65
2022/04/09 08:13:17;;;;;;;10.43;3.30;;;20.90;46.00;;;;;;5035646;27;90686;-64
2022/04/09 08:15:45;;;;;;;3.57;2.57;;;21.10;46.10;;;;;;5031663;27;89416;-65
2022/04/09 08:18:14;;;;;;;8.73;2.60;;;21.30;46.10;;;;;;5037727;28;89190;-64
2022/04/09 08:21:01;;;;;;;5.90;3.00;;;21.50;46.10;;;;;;5037131;27;88586;-65
2022/04/09 08:23:29;;;;;;;3.73;2.57;;;21.70;46.00;;;;;;5039394;28;90696;-65
2022/04/09 08:25:57;;;;;;;5.38;2.72;;;21.80;46.00;;;;;;5039250;28;88491;-65
2022/04/09 08:28:26;;;;;;;4.77;2.83;;;21.90;46.30;;;;;;5035754;28;88918;-64
2022/04/09 08:30:54;;;;;;;5.37;2.73;;;22.10;46.20;;;;;;5019539;28;88468;-64
2022/04/09 08:33:24;;;;;;;5.60;2.33;;;22.30;46.20;;;;;;5021105;28;89426;-64
2022/04/09 08:35:52;;;;;;;4.70;2.17;;;22.60;46.20;;;;;;5039201;28;92511;-64
2022/04/09 08:38:20;;;;;;;4.80;2.43;;;22.80;46.10;;;;;;5053654;27;88952;-64
2022/04/09 08:40:48;;;;;;;6.17;2.67;;;23.20;45.60;;;;;;5041379;27;90346;-64
2022/04/09 08:43:16;;;;;;;6.30;2.40;;;23.10;46.10;;;;;;5039806;28;90566;-64
2022/04/09 08:45:44;;;;;;;5.77;2.43;;;23.30;46.00;;;;;;5040219;28;89815;-63
2022/04/09 08:48:12;;;;;;;2.60;1.60;;;23.50;46.10;;;;;;5039953;27;88758;-64
2022/04/09 08:50:42;;;;;;;5.63;2.00;;;23.70;46.10;;;;;;5025892;28;89138;-65
2022/04/09 08:53:09;;;;;;;4.43;2.33;;;23.80;46.10;;;;;;5038847;28;90650;-64
2022/04/09 08:55:38;;;;;;;3.57;2.50;;;23.80;46.10;;;;;;5026973;28;91712;-66
2022/04/09 08:58:06;;;;;;;4.73;2.63;;;23.80;46.20;;;;;;5035023;28;88780;-66
2022/04/09 09:00:34;;;;;;;5.47;2.60;;;23.90;46.30;;;;;;5039104;28;88713;-66
2022/04/09 09:03:02;;;;;;;3.47;2.10;;;23.90;46.20;;;;;;5035814;28;90037;-66
2022/04/09 09:05:31;;;;;;;2.33;1.63;;;23.90;46.20;;;;;;5036827;28;88912;-66
2022/04/09 09:08:01;;;;;;;5.30;1.73;;;24.00;46.10;;;;;;5048343;27;88911;-66
2022/04/09 09:10:31;;;;;;;5.93;1.60;;;24.10;46.00;;;;;;5044746;27;89385;-66
2022/04/09 09:13:01;;;;;;;4.00;1.70;;;24.20;45.90;;;;;;5037118;27;89990;-66
2022/04/09 09:15:29;;;;;;;4.03;1.67;;;24.30;45.70;;;;;;5042267;27;88565;-67
2022/04/09 09:17:57;;;;;;;5.07;1.50;;;24.40;45.60;;;;;;5030633;27;88899;-66
2022/04/09 09:20:26;;;;;;;3.27;1.43;;;24.60;45.50;;;;;;5033167;27;89795;-66
2022/04/09 09:22:54;;;;;;;2.77;1.40;;;24.60;45.30;;;;;;5036742;27;90039;-66
2022/04/09 09:25:23;;;;;;;4.20;1.83;;;24.60;45.10;;;;;;5050992;27;91591;-66
2022/04/09 09:27:58;;;;;;;2.37;1.23;;;24.70;45.10;;;;;;5046673;27;88564;-66
2022/04/09 09:30:26;;;;;;;3.33;1.40;;;24.60;44.90;;;;;;5042220;27;88360;-66
2022/04/09 09:33:06;;;;;;;6.00;1.30;;;24.70;44.90;;;;;;5038541;27;89719;-66
2022/04/09 09:35:55;;;;;;;5.27;1.77;;;24.70;44.90;;;;;;5037495;27;92087;-66
2022/04/09 09:38:24;;;;;;;4.27;2.23;;;24.70;44.80;;;;;;5038555;28;88519;-66
2022/04/09 09:40:53;;;;;;;6.43;2.93;;;24.80;44.70;;;;;;5043211;27;88510;-67
2022/04/09 09:43:23;;;;;;;8.23;3.20;;;24.80;44.60;;;;;;5041529;28;90317;-66
2022/04/09 09:45:52;;;;;;;7.57;3.40;;;24.90;44.50;;;;;;5039610;27;90016;-66
2022/04/09 09:48:21;;;;;;;8.80;3.33;;;25.00;44.40;;;;;;5039593;27;88608;-66
2022/04/09 09:50:49;;;;;;;6.30;3.17;;;25.10;44.30;;;;;;5039292;27;88618;-66
2022/04/09 09:53:26;;;;;;;6.70;3.43;;;25.20;44.20;;;;;;5038058;27;90258;-66
2022/04/09 09:55:57;;;;;;;8.70;3.90;;;25.30;44.70;;;;;;5039459;27;92155;-66
2022/04/09 09:58:25;;;;;;;6.57;3.77;;;25.40;43.90;;;;;;5040293;27;90430;-66
2022/04/09 10:01:13;;;;;;;7.63;4.03;;;25.50;43.80;;;;;;5039409;28;88664;-66
2022/04/09 10:03:41;;;;;;;9.93;4.90;;;25.50;43.70;;;;;;5040262;27;90590;-66
2022/04/09 10:06:09;;;;;;;13.20;4.83;;;25.60;43.60;;;;;;5040708;27;90238;-66
2022/04/09 10:08:38;;;;;;;12.60;5.07;;;25.60;43.60;;;;;;5040036;27;89300;-66
2022/04/09 10:11:07;;;;;;;9.77;4.57;;;25.50;43.50;;;;;;5037460;27;89577;-66
2022/04/09 10:13:35;;;;;;;8.47;4.47;;;25.50;43.50;;;;;;5038239;27;89448;-66
2022/04/09 10:16:03;;;;;;;12.57;4.40;;;25.50;43.40;;;;;;5034389;27;89957;-68
2022/04/09 10:18:32;;;;;;;10.73;4.97;;;25.30;43.20;;;;;;5033453;28;88594;-67
2022/04/09 10:21:01;;;;;;;10.40;5.20;;;25.60;43.40;;;;;;5040627;27;88602;-67
2022/04/09 10:23:32;;;;;;;7.90;4.67;;;25.60;43.30;;;;;;5042720;27;90709;-67
2022/04/09 10:26:00;;;;;;;9.03;4.37;;;25.60;43.20;;;;;;5044347;27;88548;-67
2022/04/09 10:28:35;;;;;;;11.30;4.30;;;25.60;43.00;;;;;;5043636;27;88546;-67
2022/04/09 10:31:04;;;;;;;7.73;4.60;;;25.50;43.00;;;;;;5041589;27;89227;-68
2022/04/09 10:33:36;;;;;;;9.20;3.90;;;25.50;43.50;;;;;;5043583;27;90492;-68
2022/04/09 10:36:05;;;;;;;8.23;4.03;;;25.50;42.90;;;;;;5038158;27;89121;-67
2022/04/09 10:38:36;;;;;;;10.10;4.07;;;25.40;42.80;;;;;;5036603;27;89706;-66
2022/04/09 10:41:27;;;;;;;8.17;4.00;;;25.40;42.90;;;;;;5036871;27;88873;-66
2022/04/09 10:44:00;;;;;;;5.30;3.40;;;25.30;42.90;;;;;;5039148;27;90556;-66
2022/04/09 10:46:46;;;;;;;8.13;3.30;;;25.20;42.90;;;;;;5039648;27;89524;-67
2022/04/09 10:49:21;;;;;;;4.93;3.10;;;25.10;43.10;;;;;;5039808;27;88704;-67
2022/04/09 10:52:06;;;;;;;5.53;3.70;;;25.00;43.10;;;;;;5038509;27;88618;-67
2022/04/09 10:54:34;;;;;;;4.63;2.97;;;24.90;43.20;;;;;;5038056;27;89357;-67
2022/04/09 10:57:09;;;;;;;5.73;3.07;;;24.90;43.20;;;;;;5039240;28;90389;-67
2022/04/09 10:59:38;;;;;;;9.30;3.77;;;24.80;43.20;;;;;;5038347;28;91707;-67
2022/04/09 11:02:06;;;;;;;8.73;3.40;;;24.80;43.30;;;;;;5040404;28;88518;-67
2022/04/09 11:04:47;;;;;;;9.60;3.33;;;24.80;43.30;;;;;;5040955;28;90247;-67
2022/04/09 11:07:19;;;;;;;8.07;4.13;;;24.70;43.30;;;;;;5040586;28;89523;-67
2022/04/09 11:09:52;;;;;;;9.00;4.07;;;24.70;43.30;;;;;;5038387;28;88965;-67
2022/04/09 11:12:22;;;;;;;8.13;4.63;;;24.60;43.30;;;;;;5040606;27;88666;-67
2022/04/09 11:14:52;;;;;;;9.90;4.47;;;24.60;43.30;;;;;;5040307;28;90570;-67
2022/04/09 11:17:24;;;;;;;7.90;4.80;;;24.60;43.30;;;;;;5040088;27;89069;-68
2022/04/09 11:19:52;;;;;;;10.53;5.63;;;24.50;43.30;;;;;;5043535;27;89343;-67
2022/04/09 11:22:20;;;;;;;12.27;6.77;;;24.50;43.30;;;;;;5037215;27;88574;-67
2022/04/09 11:24:48;;;;;;;7.87;5.40;;;24.40;43.20;;;;;;5038595;27;90666;-67
2022/04/09 11:27:16;;;;;;;12.87;6.40;;;24.40;43.20;;;;;;5034340;28;89612;-67
2022/04/09 11:29:45;;;;;;;18.27;6.73;;;24.40;43.90;;;;;;5038871;27;88771;-67
2022/04/09 11:32:21;;;;;;;11.03;6.43;;;24.40;43.20;;;;;;5038517;28;89425;-67
2022/04/09 11:34:50;;;;;;;12.67;7.03;;;24.40;43.20;;;;;;5037168;28;90082;-68
2022/04/09 11:37:18;;;;;;;10.23;5.67;;;24.40;43.20;;;;;;5038513;27;90067;-67
2022/04/09 11:39:47;;;;;;;15.50;6.40;;;24.30;43.20;;;;;;5035962;28;89304;-67
2022/04/09 11:42:15;;;;;;;13.77;6.13;;;24.30;43.20;;;;;;5038254;27;88424;-68
2022/04/09 11:44:49;;;;;;;14.27;6.43;;;24.30;43.70;;;;;;5038011;27;91091;-68
2022/04/09 11:47:23;;;;;;;12.80;6.67;;;24.30;43.10;;;;;;5039301;27;90109;-67
2022/04/09 11:49:52;;;;;;;11.20;6.53;;;24.20;43.00;;;;;;5045101;27;88597;-68
2022/04/09 11:52:27;;;;;;;12.90;7.10;;;24.20;43.00;;;;;;5043222;27;88645;-67
2022/04/09 11:54:55;;;;;;;11.33;5.90;;;24.20;43.00;;;;;;5041051;27;91513;-67
2022/04/09 11:57:24;;;;;;;16.60;6.60;;;24.20;43.00;;;;;;5038782;27;90302;-67
2022/04/09 11:59:53;;;;;;;11.23;6.13;;;24.20;43.10;;;;;;5037850;27;88654;-68
2022/04/09 12:02:24;;;;;;;12.87;6.00;;;24.10;43.70;;;;;;5035581;27;88619;-67
2022/04/09 12:04:52;;;;;;;13.13;6.57;;;24.10;43.00;;;;;;5037366;27;90578;-67
2022/04/09 12:07:20;;;;;;;12.67;6.20;;;24.10;43.00;;;;;;5036099;27;90055;-67
2022/04/09 12:09:48;;;;;;;8.83;5.67;;;24.00;43.10;;;;;;5033736;28;88614;-68
2022/04/09 12:12:19;;;;;;;12.33;5.43;;;24.00;43.10;;;;;;5036035;27;88738;-67
2022/04/09 12:14:55;;;;;;;11.30;5.70;;;24.00;43.10;;;;;;5039744;27;92573;-67
2022/04/09 12:17:31;;;;;;;10.63;5.67;;;23.90;43.00;;;;;;5040847;27;90153;-67
2022/04/09 12:19:59;;;;;;;8.93;5.23;;;23.90;43.00;;;;;;5034714;28;89267;-67
2022/04/09 12:22:28;;;;;;;8.13;5.23;;;24.00;43.10;;;;;;5037480;27;88841;-69
2022/04/09 12:24:57;;;;;;;7.87;4.43;;;24.00;43.10;;;;;;5038244;27;89569;-67
2022/04/09 12:27:43;;;;;;;8.10;4.77;;;23.90;43.00;;;;;;5037291;27;88940;-67
2022/04/09 12:30:11;;;;;;;7.63;4.57;;;23.90;43.10;;;;;;5038503;28;88922;-67
2022/04/09 12:32:41;;;;;;;12.43;4.77;;;23.90;43.00;;;;;;5038405;27;88479;-67
2022/04/09 12:35:10;;;;;;;7.93;4.30;;;23.90;43.10;;;;;;5037222;27;92766;-67
2022/04/09 12:37:45;;;;;;;7.73;4.13;;;23.80;43.00;;;;;;5037771;28;88794;-67
2022/04/09 12:40:14;;;;;;;6.13;3.87;;;23.80;43.10;;;;;;5036627;27;89116;-67
2022/04/09 12:42:42;;;;;;;8.73;4.40;;;23.80;43.00;;;;;;5037316;27;88736;-67
2022/04/09 12:45:11;;;;;;;8.97;4.27;;;23.80;43.10;;;;;;5037152;27;90846;-67
2022/04/09 12:47:41;;;;;;;9.53;4.43;;;23.80;43.00;;;;;;5038590;28;89663;-67
2022/04/09 12:50:20;;;;;;;7.07;3.53;;;23.80;43.10;;;;;;5039599;28;91135;-68
2022/04/09 12:52:48;;;;;;;7.70;4.00;;;23.80;43.00;;;;;;5039980;28;88313;-67
2022/04/09 12:55:17;;;;;;;7.17;4.10;;;23.80;43.70;;;;;;5039119;28;90676;-67